Time;durP1;ratioP1;P1;durP2;ratioP2;P2;SDS_P1;SDS_P2;PMS_P1;PMS_P2;Temp;Humidity;BMP_temperature;BMP_pressure;BME280_temperature;BME280_humidity;BME280_pressure;Samples;Min_cycle;Max_cycle;Signal;HPM_P1;HPM_P2
2022/06/09 02:16:04;;;;;;;31.93;30.30;;;14.50;99.90;;;;;;5609755;22;20483;-72
2022/06/09 02:18:32;;;;;;;32.70;31.00;;;14.50;99.90;;;;;;5027283;28;20894;-72
2022/06/09 02:21:04;;;;;;;32.43;30.73;;;14.50;99.90;;;;;;5023945;28;20846;-72
2022/06/09 02:23:31;;;;;;;33.30;31.67;;;14.50;99.90;;;;;;5032639;28;20489;-71
2022/06/09 02:25:58;;;;;;;32.70;31.10;;;14.40;99.90;;;;;;5032434;28;20492;-71
2022/06/09 02:28:25;;;;;;;31.40;29.90;;;14.40;99.90;;;;;;5032668;28;20463;-72
2022/06/09 02:30:51;;;;;;;31.40;29.90;;;14.40;99.90;;;;;;5032470;28;20449;-73
2022/06/09 02:33:21;;;;;;;31.87;30.07;;;14.40;99.90;;;;;;5032189;28;20453;-71
2022/06/09 02:35:47;;;;;;;31.73;30.13;;;14.40;99.90;;;;;;5032226;28;20879;-73
2022/06/09 02:38:14;;;;;;;32.30;30.63;;;14.40;99.90;;;;;;5032324;28;20462;-73
2022/06/09 02:40:41;;;;;;;31.43;29.83;;;14.40;99.90;;;;;;5032282;28;20453;-74
2022/06/09 02:43:08;;;;;;;29.97;28.57;;;14.40;99.90;;;;;;5032268;28;20452;-74
2022/06/09 02:45:34;;;;;;;30.70;29.20;;;14.40;99.90;;;;;;5031761;28;20453;-74
2022/06/09 02:48:01;;;;;;;29.70;28.00;;;14.40;99.90;;;;;;5031631;28;20803;-73
2022/06/09 02:50:30;;;;;;;30.53;28.73;;;14.40;99.90;;;;;;5032040;28;20480;-73
2022/06/09 02:52:58;;;;;;;30.30;28.87;;;14.30;99.90;;;;;;5032056;28;20457;-73
2022/06/09 02:55:25;;;;;;;29.83;28.23;;;14.30;99.90;;;;;;5032135;28;20456;-72
2022/06/09 02:57:52;;;;;;;31.17;29.50;;;14.30;99.90;;;;;;5032063;28;20441;-73
2022/06/09 03:00:19;;;;;;;29.53;28.13;;;14.30;99.90;;;;;;5031804;28;20464;-73
2022/06/09 03:02:53;;;;;;;30.07;28.57;;;14.30;99.90;;;;;;5031682;28;20480;-73
2022/06/09 03:05:19;;;;;;;29.50;28.10;;;14.30;99.90;;;;;;5032126;28;20491;-73
2022/06/09 03:07:48;;;;;;;29.93;28.43;;;14.30;99.90;;;;;;5031926;28;20764;-72
2022/06/09 03:10:15;;;;;;;29.17;27.70;;;14.30;99.90;;;;;;5031571;28;20457;-73
2022/06/09 03:12:42;;;;;;;29.77;28.27;;;14.30;99.90;;;;;;5032009;28;20453;-73
2022/06/09 03:15:11;;;;;;;29.77;28.30;;;14.30;99.90;;;;;;5017397;28;20496;-73
2022/06/09 03:17:38;;;;;;;29.43;27.93;;;14.20;99.90;;;;;;5012223;28;20458;-72
2022/06/09 03:20:09;;;;;;;29.93;28.33;;;14.20;99.90;;;;;;5011746;28;20720;-73
2022/06/09 03:22:36;;;;;;;29.23;27.80;;;14.20;99.90;;;;;;5011822;28;20458;-73
2022/06/09 03:25:05;;;;;;;29.37;27.83;;;14.20;99.90;;;;;;5011727;28;20461;-73
2022/06/09 03:27:31;;;;;;;30.17;28.60;;;14.20;99.90;;;;;;5011577;28;20494;-73
2022/06/09 03:29:59;;;;;;;30.40;28.90;;;14.20;99.90;;;;;;5011596;28;20955;-72
2022/06/09 03:32:25;;;;;;;29.13;27.53;;;14.30;99.90;;;;;;5012061;28;20901;-71
2022/06/09 03:34:52;;;;;;;30.30;28.50;;;14.30;99.90;;;;;;5011347;28;20457;-72
2022/06/09 03:37:19;;;;;;;30.93;29.13;;;14.30;99.90;;;;;;5011591;28;20449;-72
2022/06/09 03:39:45;;;;;;;29.33;27.73;;;14.40;99.90;;;;;;5011541;28;20951;-71
2022/06/09 03:42:13;;;;;;;30.00;28.30;;;14.40;99.90;;;;;;5011273;28;20450;-71
2022/06/09 03:44:40;;;;;;;31.93;29.77;;;14.50;99.90;;;;;;5011703;28;20452;-72
2022/06/09 03:47:08;;;;;;;29.23;27.73;;;14.50;99.90;;;;;;5011367;28;20963;-72
2022/06/09 03:49:34;;;;;;;29.80;28.30;;;14.60;99.90;;;;;;5011274;28;20478;-72
2022/06/09 03:52:01;;;;;;;30.00;28.40;;;14.60;99.90;;;;;;5011216;28;20834;-73
2022/06/09 03:54:28;;;;;;;30.50;28.70;;;14.60;99.90;;;;;;5011180;28;20461;-73
2022/06/09 03:56:54;;;;;;;30.80;28.90;;;14.60;99.90;;;;;;5011543;28;20815;-73
2022/06/09 03:59:22;;;;;;;29.73;28.23;;;14.50;99.90;;;;;;5010291;28;20458;-73
2022/06/09 04:01:49;;;;;;;29.87;28.40;;;14.50;99.90;;;;;;5010972;28;20481;-73
2022/06/09 04:04:16;;;;;;;30.33;28.63;;;14.60;99.90;;;;;;5010829;28;20449;-73
2022/06/09 04:06:43;;;;;;;30.40;28.70;;;14.60;99.90;;;;;;5011044;28;20555;-73
2022/06/09 04:09:11;;;;;;;29.10;27.60;;;14.60;99.90;;;;;;5011120;28;20458;-72
2022/06/09 04:11:37;;;;;;;29.10;27.60;;;14.60;99.90;;;;;;5010897;28;20454;-72
2022/06/09 04:14:04;;;;;;;28.30;26.90;;;14.70;99.90;;;;;;5010596;28;20470;-73
2022/06/09 04:16:35;;;;;;;28.07;26.50;;;14.70;99.90;;;;;;5010617;28;20501;-72
2022/06/09 04:19:05;;;;;;;27.43;26.17;;;14.80;99.90;;;;;;5010961;28;20830;-72
2022/06/09 04:21:33;;;;;;;26.27;24.97;;;14.70;99.90;;;;;;5010750;28;20460;-72
2022/06/09 04:24:00;;;;;;;26.30;25.00;;;14.80;99.90;;;;;;5010355;28;20966;-72
2022/06/09 04:26:30;;;;;;;25.27;24.07;;;14.80;99.90;;;;;;5010959;28;20490;-72
2022/06/09 04:28:57;;;;;;;24.93;23.43;;;14.90;99.90;;;;;;5010780;28;20457;-72
2022/06/09 04:31:24;;;;;;;23.60;22.10;;;14.90;99.90;;;;;;5010860;28;20446;-72
2022/06/09 04:33:52;;;;;;;22.50;21.47;;;15.20;99.90;;;;;;5010397;28;20990;-72
2022/06/09 04:36:20;;;;;;;21.50;20.10;;;15.40;99.90;;;;;;5010216;28;20461;-72
2022/06/09 04:38:47;;;;;;;19.13;18.30;;;15.50;99.90;;;;;;5010545;28;20863;-74
2022/06/09 04:41:16;;;;;;;18.10;17.13;;;15.50;99.90;;;;;;5010432;28;20454;-73
2022/06/09 04:43:45;;;;;;;17.87;16.80;;;15.40;99.90;;;;;;5010227;28;20457;-72
2022/06/09 04:46:15;;;;;;;16.43;15.63;;;15.40;99.90;;;;;;5010370;28;20482;-72
2022/06/09 04:48:42;;;;;;;17.20;16.40;;;15.40;99.90;;;;;;5010476;28;20450;-72
2022/06/09 04:51:16;;;;;;;15.93;15.03;;;15.40;99.90;;;;;;5010396;28;20461;-73
2022/06/09 04:53:44;;;;;;;15.40;14.70;;;15.40;99.90;;;;;;5010319;28;20503;-72
2022/06/09 04:56:11;;;;;;;15.50;14.50;;;15.40;99.90;;;;;;5009905;28;20445;-73
2022/06/09 04:58:39;;;;;;;13.70;13.20;;;15.40;99.90;;;;;;5010185;28;20457;-73
2022/06/09 05:01:06;;;;;;;13.47;12.90;;;15.50;99.90;;;;;;5009862;28;20453;-72
2022/06/09 05:03:33;;;;;;;13.90;13.30;;;15.50;99.90;;;;;;5009934;28;20943;-73
2022/06/09 05:06:00;;;;;;;13.83;13.13;;;15.40;99.90;;;;;;5009758;28;20962;-73
2022/06/09 05:08:28;;;;;;;13.10;12.50;;;15.30;99.90;;;;;;5010335;28;20493;-73
2022/06/09 05:10:55;;;;;;;14.30;13.43;;;15.30;99.90;;;;;;5012917;28;20476;-73
2022/06/09 05:13:22;;;;;;;13.17;12.57;;;15.40;99.90;;;;;;5014231;28;20441;-73
2022/06/09 05:15:51;;;;;;;13.73;13.00;;;15.50;99.90;;;;;;5013378;28;20515;-73
2022/06/09 05:18:19;;;;;;;13.97;13.07;;;15.70;99.90;;;;;;5013960;28;20828;-73
2022/06/09 05:20:46;;;;;;;14.30;13.60;;;15.80;99.90;;;;;;5013934;28;20461;-72
2022/06/09 05:23:13;;;;;;;13.80;13.00;;;15.90;99.90;;;;;;5013935;28;20449;-72
2022/06/09 05:25:41;;;;;;;14.00;13.10;;;16.00;99.90;;;;;;5013919;28;20823;-73
2022/06/09 05:28:08;;;;;;;15.30;14.17;;;16.20;99.90;;;;;;5013369;28;20490;-73
2022/06/09 05:30:34;;;;;;;13.07;12.37;;;16.30;99.90;;;;;;5013556;28;20827;-71
2022/06/09 05:33:02;;;;;;;13.30;12.30;;;16.40;99.90;;;;;;5013866;28;20450;-73
2022/06/09 05:35:29;;;;;;;13.20;12.57;;;16.40;99.90;;;;;;5013960;28;20802;-72
2022/06/09 05:46:15;;;;;;;13.00;12.17;;;17.60;99.90;;;;;;5013412;28;20445;-72
2022/06/09 05:48:42;;;;;;;12.40;11.90;;;18.10;99.90;;;;;;5013687;28;20580;-72
2022/06/09 05:51:09;;;;;;;11.63;11.23;;;18.40;99.90;;;;;;5013636;28;20461;-72
2022/06/09 05:53:37;;;;;;;12.47;11.77;;;19.10;99.90;;;;;;5013817;28;20473;-73
2022/06/09 05:56:06;;;;;;;13.10;12.23;;;19.70;99.90;;;;;;5013503;28;20484;-72
2022/06/09 05:58:33;;;;;;;12.50;11.80;;;20.10;99.90;;;;;;5013200;28;20445;-72
2022/06/09 06:01:01;;;;;;;13.10;12.00;;;20.40;99.90;;;;;;5013134;28;20449;-72
2022/06/09 06:03:28;;;;;;;12.77;12.27;;;20.50;99.90;;;;;;5013567;28;20441;-72
2022/06/09 06:08:39;;;;;;;13.00;12.23;;;21.50;99.90;;;;;;5013227;28;20516;-72
2022/06/09 06:11:08;;;;;;;12.80;12.30;;;21.70;99.90;;;;;;5013014;28;20543;-73
2022/06/09 06:13:35;;;;;;;13.00;12.50;;;22.30;99.90;;;;;;5012944;28;20449;-73
2022/06/09 06:16:02;;;;;;;13.37;12.40;;;22.40;99.90;;;;;;5012923;28;20531;-74
2022/06/09 06:18:28;;;;;;;12.57;11.97;;;22.80;99.90;;;;;;5012921;28;20522;-75
2022/06/09 06:20:55;;;;;;;12.00;11.23;;;22.70;99.90;;;;;;5013009;28;20456;-74
2022/06/09 06:23:22;;;;;;;12.50;11.77;;;22.90;99.90;;;;;;5012130;28;20461;-74
2022/06/09 06:25:49;;;;;;;12.67;12.20;;;22.90;99.90;;;;;;5012797;28;20458;-74
2022/06/09 06:28:17;;;;;;;13.30;12.70;;;23.10;99.40;;;;;;5012922;28;20485;-75
2022/06/09 06:30:44;;;;;;;12.20;11.30;;;22.70;98.50;;;;;;5012721;28;20449;-76
2022/06/09 06:33:11;;;;;;;12.10;11.60;;;22.50;98.50;;;;;;5012844;28;20449;-75
2022/06/09 06:35:38;;;;;;;12.10;11.40;;;22.90;98.80;;;;;;5012585;28;20802;-74
2022/06/09 06:38:19;;;;;;;12.50;11.70;;;23.00;99.00;;;;;;5012708;28;20818;-76
2022/06/09 06:40:47;;;;;;;12.70;12.00;;;23.00;98.60;;;;;;5009604;28;20450;-75
2022/06/09 06:43:14;;;;;;;12.57;11.77;;;22.60;99.00;;;;;;5011056;28;20445;-77
2022/06/09 06:45:42;;;;;;;13.03;12.13;;;21.70;99.90;;;;;;5010395;28;20438;-77
2022/06/09 06:48:09;;;;;;;13.00;12.00;;;21.60;99.90;;;;;;5012306;28;20486;-76
2022/06/09 06:50:36;;;;;;;12.27;11.60;;;21.60;99.90;;;;;;5012073;28;20454;-77
2022/06/09 06:53:02;;;;;;;11.83;11.33;;;21.70;99.90;;;;;;5012003;28;20831;-76
2022/06/09 06:55:30;;;;;;;11.50;10.90;;;21.30;99.90;;;;;;5012012;28;20446;-77
2022/06/09 06:57:56;;;;;;;11.80;11.30;;;22.50;99.80;;;;;;5012140;28;20499;-77
2022/06/09 07:00:25;;;;;;;11.87;11.37;;;23.30;97.30;;;;;;5011846;28;20460;-77
2022/06/09 07:02:53;;;;;;;12.70;11.80;;;23.20;95.80;;;;;;5011462;28;20453;-77
2022/06/09 07:05:22;;;;;;;14.73;13.40;;;23.30;95.30;;;;;;5011773;28;20458;-78
2022/06/09 07:07:49;;;;;;;13.40;12.57;;;23.60;93.80;;;;;;5009908;28;20494;-79
2022/06/09 07:10:16;;;;;;;12.60;12.00;;;23.40;94.80;;;;;;5012117;28;20516;-79
2022/06/09 07:12:43;;;;;;;12.03;11.43;;;22.80;94.80;;;;;;5012096;28;20464;-79
2022/06/09 07:15:12;;;;;;;12.23;11.37;;;22.50;95.50;;;;;;5011531;28;20478;-78
2022/06/09 07:17:39;;;;;;;12.60;11.90;;;22.10;95.70;;;;;;5012371;28;20442;-80
2022/06/09 07:20:08;;;;;;;12.37;11.67;;;22.10;96.60;;;;;;5011751;28;20458;-79
2022/06/09 07:22:35;;;;;;;11.30;10.47;;;22.30;95.40;;;;;;5012031;28;20963;-80
2022/06/09 07:25:02;;;;;;;12.10;11.00;;;22.20;96.70;;;;;;5012127;28;20774;-79
2022/06/09 07:27:29;;;;;;;11.63;11.13;;;22.50;96.90;;;;;;5012115;28;20486;-80
2022/06/09 07:29:55;;;;;;;12.00;11.40;;;22.20;96.80;;;;;;5012063;28;20457;-80
2022/06/09 07:32:23;;;;;;;11.93;11.17;;;22.30;96.80;;;;;;5011934;28;20457;-81
2022/06/09 07:34:49;;;;;;;12.73;11.50;;;22.20;96.50;;;;;;5011842;28;20446;-81
2022/06/09 07:37:17;;;;;;;12.10;11.23;;;21.70;96.10;;;;;;5011845;28;20458;-80
2022/06/09 07:39:44;;;;;;;11.60;10.87;;;20.80;96.80;;;;;;5011774;28;20446;-79
2022/06/09 07:42:12;;;;;;;12.00;11.20;;;20.60;98.10;;;;;;5012139;28;20453;-79
2022/06/09 07:44:39;;;;;;;11.50;11.07;;;20.30;98.50;;;;;;5011735;28;20620;-79
2022/06/09 07:47:06;;;;;;;13.53;12.40;;;20.50;97.90;;;;;;5011402;28;20454;-79
2022/06/09 07:49:34;;;;;;;10.97;10.43;;;21.00;97.00;;;;;;5011297;28;20476;-79
2022/06/09 07:52:01;;;;;;;11.50;10.90;;;21.70;95.20;;;;;;5011387;28;20959;-79
2022/06/09 07:54:29;;;;;;;11.70;10.80;;;22.50;94.30;;;;;;5011498;28;20453;-81
2022/06/09 07:56:56;;;;;;;11.80;11.30;;;22.90;93.50;;;;;;5011523;28;20461;-80
2022/06/09 07:59:23;;;;;;;12.37;11.30;;;23.90;91.60;;;;;;5011471;28;20450;-80
2022/06/09 08:01:49;;;;;;;12.10;11.40;;;24.00;90.80;;;;;;5011046;28;20450;-81
2022/06/09 08:04:16;;;;;;;12.20;11.50;;;24.50;89.60;;;;;;5014009;28;20450;-81
2022/06/09 08:06:43;;;;;;;11.50;10.90;;;24.50;88.50;;;;;;5011417;28;20556;-83
2022/06/09 08:09:11;;;;;;;11.70;11.10;;;24.70;88.90;;;;;;5009976;28;20894;-84
2022/06/09 08:11:40;;;;;;;11.90;11.20;;;25.20;87.20;;;;;;5010974;28;20878;-85
2022/06/09 08:14:09;;;;;;;12.37;11.50;;;26.00;83.50;;;;;;5010969;28;20469;-84
2022/06/09 08:16:36;;;;;;;12.03;11.53;;;26.30;83.00;;;;;;5011794;28;21042;-85
2022/06/09 08:19:04;;;;;;;13.40;12.33;;;25.70;85.40;;;;;;5011472;28;21021;-85
2022/06/09 08:21:31;;;;;;;12.40;11.70;;;25.60;84.10;;;;;;5011327;28;20454;-86
2022/06/09 08:23:59;;;;;;;12.70;12.00;;;25.70;83.90;;;;;;5011408;28;20928;-85
2022/06/09 08:26:26;;;;;;;12.90;11.90;;;25.60;82.80;;;;;;5019149;28;20477;-84
2022/06/09 08:28:54;;;;;;;12.70;12.20;;;25.40;84.50;;;;;;5014494;28;20496;-87
2022/06/09 08:31:24;;;;;;;11.83;11.30;;;26.00;82.90;;;;;;5013533;28;20462;-87
2022/06/09 08:33:51;;;;;;;13.50;12.80;;;25.60;81.90;;;;;;5014098;28;20446;-86
2022/06/09 08:36:18;;;;;;;13.50;12.60;;;25.10;82.50;;;;;;5011407;28;20460;-86
2022/06/09 08:38:46;;;;;;;13.30;12.50;;;24.40;85.20;;;;;;5009926;28;20472;-85
2022/06/09 08:41:27;;;;;;;13.50;12.47;;;24.60;83.80;;;;;;5013966;28;20802;-85
2022/06/09 08:44:04;;;;;;;11.30;10.70;;;25.20;83.60;;;;;;5014807;28;20859;-84
2022/06/09 08:46:41;;;;;;;13.67;12.70;;;25.20;81.50;;;;;;5011774;28;20449;-83
2022/06/09 08:49:38;;;;;;;12.33;11.60;;;25.00;82.30;;;;;;5012719;28;20846;-84
2022/06/09 08:52:08;;;;;;;12.17;11.53;;;23.80;83.60;;;;;;5000777;28;20943;-83
2022/06/09 08:54:37;;;;;;;12.10;11.60;;;22.80;88.70;;;;;;5014751;28;20453;-83
2022/06/09 08:57:13;;;;;;;11.23;10.73;;;22.20;90.30;;;;;;5014187;28;20456;-82
2022/06/09 08:59:43;;;;;;;12.57;12.00;;;22.90;90.90;;;;;;5013344;28;20449;-82
2022/06/09 09:02:31;;;;;;;12.97;11.80;;;23.30;87.50;;;;;;5013561;28;20446;-82
2022/06/09 09:05:07;;;;;;;12.73;12.10;;;22.80;85.40;;;;;;5012660;28;20960;-80
2022/06/09 09:07:36;;;;;;;12.27;11.17;;;22.60;86.00;;;;;;5010386;28;20951;-80
2022/06/09 09:10:16;;;;;;;13.23;12.40;;;23.40;85.30;;;;;;5012808;28;20781;-82
2022/06/09 09:12:48;;;;;;;12.50;12.00;;;24.50;83.30;;;;;;5009858;28;20505;-85
2022/06/09 09:15:22;;;;;;;13.43;12.33;;;25.50;81.80;;;;;;5001438;28;20486;-82
2022/06/09 09:17:57;;;;;;;12.67;12.10;;;24.90;82.90;;;;;;5002627;28;20449;-83
2022/06/09 09:20:30;;;;;;;12.53;11.93;;;25.10;78.70;;;;;;5010984;28;20449;-84
2022/06/09 09:23:07;;;;;;;12.20;11.70;;;25.60;79.20;;;;;;4992104;28;20458;-83
2022/06/09 09:25:44;;;;;;;13.17;12.50;;;26.00;78.10;;;;;;4990567;28;20454;-82
2022/06/09 09:28:18;;;;;;;13.13;12.17;;;26.50;76.30;;;;;;4991205;28;20493;-83
2022/06/09 09:30:56;;;;;;;12.87;12.27;;;27.00;73.80;;;;;;5003488;28;20450;-84
2022/06/09 09:33:23;;;;;;;12.77;12.27;;;27.40;73.10;;;;;;5010493;28;20449;-83
2022/06/09 09:35:54;;;;;;;13.67;12.97;;;27.70;70.60;;;;;;5010542;28;20477;-84
2022/06/09 09:38:23;;;;;;;13.00;12.30;;;27.50;71.10;;;;;;5010626;28;20620;-82
2022/06/09 09:40:57;;;;;;;13.07;12.37;;;26.60;71.40;;;;;;5010392;28;20461;-84
2022/06/09 09:43:26;;;;;;;12.33;11.80;;;26.80;76.10;;;;;;5010496;28;20449;-82
2022/06/09 09:45:57;;;;;;;13.53;12.83;;;28.00;70.60;;;;;;5010616;28;20541;-83
2022/06/09 09:48:37;;;;;;;12.83;12.33;;;28.70;68.90;;;;;;4993028;28;20537;-83
2022/06/09 09:51:10;;;;;;;12.20;11.60;;;28.10;67.70;;;;;;4991544;28;20455;-81
2022/06/09 09:53:39;;;;;;;14.10;13.03;;;26.80;73.60;;;;;;4991937;28;20491;-82
2022/06/09 09:56:29;;;;;;;13.30;12.40;;;26.80;72.10;;;;;;4992498;28;20451;-80
2022/06/09 09:58:58;;;;;;;13.50;12.70;;;27.80;69.60;;;;;;4994924;28;20454;-81
2022/06/09 10:08:35;;;;;;;12.30;11.80;;;28.40;69.70;;;;;;4994825;28;20461;-82
2022/06/09 10:10:14;;;;;;;12.90;12.30;;;29.30;65.40;;;;;;4995046;28;20481;-84
2022/06/09 10:12:42;;;;;;;13.20;12.50;;;28.80;64.60;;;;;;4994658;28;20455;-84
2022/06/09 10:15:18;;;;;;;13.07;12.57;;;28.80;64.70;;;;;;4994851;28;20476;-82
2022/06/09 10:17:57;;;;;;;13.83;13.10;;;29.10;62.00;;;;;;4994854;28;20526;-82
2022/06/09 10:20:32;;;;;;;13.17;12.37;;;28.70;64.00;;;;;;4995106;28;20546;-83
2022/06/09 10:23:03;;;;;;;13.43;12.67;;;27.80;66.30;;;;;;5014266;28;20515;-82
2022/06/09 10:25:35;;;;;;;12.50;12.00;;;27.70;66.10;;;;;;5013857;28;20461;-83
2022/06/09 10:28:13;;;;;;;13.23;12.60;;;27.50;66.40;;;;;;5014107;28;20457;-82
2022/06/09 10:30:46;;;;;;;12.63;12.03;;;28.10;64.00;;;;;;5014417;28;20940;-84
2022/06/09 10:33:25;;;;;;;12.57;11.97;;;28.30;62.60;;;;;;5014498;28;20480;-82
2022/06/09 10:35:59;;;;;;;13.17;12.57;;;28.50;63.60;;;;;;5014539;28;20449;-82
2022/06/09 10:38:33;;;;;;;12.87;12.03;;;27.20;66.60;;;;;;5014376;28;20456;-84
2022/06/09 10:41:03;;;;;;;11.93;11.43;;;27.00;64.30;;;;;;5014114;28;20456;-82
2022/06/09 10:43:36;;;;;;;12.37;11.57;;;26.40;64.60;;;;;;5012891;28;20485;-83
2022/06/09 10:46:15;;;;;;;12.13;11.47;;;25.90;66.50;;;;;;5013812;28;20461;-82
2022/06/09 10:57:27;;;;;;;12.50;11.80;;;28.20;65.00;;;;;;5013000;28;20457;-79
2022/06/09 11:00:03;;;;;;;12.27;11.53;;;26.10;69.90;;;;;;5013192;28;20445;-80
2022/06/09 11:02:32;;;;;;;11.50;10.80;;;25.10;74.10;;;;;;4994259;28;20467;-81
2022/06/09 11:05:01;;;;;;;12.10;11.40;;;24.00;74.00;;;;;;4991364;28;20967;-81
2022/06/09 11:07:54;;;;;;;12.33;11.73;;;24.40;73.30;;;;;;4993312;28;20527;-83
2022/06/09 11:10:29;;;;;;;12.20;11.60;;;25.30;71.30;;;;;;4993187;28;20849;-82
2022/06/09 11:13:15;;;;;;;12.37;11.37;;;25.00;73.10;;;;;;4994199;28;20811;-83
2022/06/09 11:15:49;;;;;;;11.60;10.93;;;25.50;72.00;;;;;;4993178;28;20869;-83
2022/06/09 11:18:28;;;;;;;11.90;11.30;;;26.20;71.60;;;;;;4993061;28;20501;-82
2022/06/09 11:21:08;;;;;;;11.50;11.00;;;26.10;71.80;;;;;;4994019;28;20455;-82
2022/06/09 11:23:52;;;;;;;11.10;10.60;;;24.80;73.40;;;;;;4991926;28;20450;-86
2022/06/09 11:26:28;;;;;;;11.30;10.70;;;25.70;67.80;;;;;;4993257;28;20463;-87
2022/06/09 11:29:02;;;;;;;11.90;11.20;;;25.90;67.20;;;;;;4993704;28;20478;-85
2022/06/09 11:31:48;;;;;;;12.30;11.70;;;26.30;66.90;;;;;;4994108;28;20476;-86
2022/06/09 11:34:34;;;;;;;12.07;11.50;;;26.60;70.30;;;;;;4995467;28;20450;-86
2022/06/09 11:37:14;;;;;;;12.60;11.83;;;26.40;68.30;;;;;;4994946;28;20449;-88
2022/06/09 11:39:51;;;;;;;12.43;11.53;;;26.70;67.80;;;;;;4994274;28;20458;-86
2022/06/09 11:42:29;;;;;;;12.50;11.80;;;27.00;67.30;;;;;;4992986;28;20450;-85
2022/06/09 11:44:59;;;;;;;11.90;11.20;;;27.40;65.50;;;;;;4993753;28;20829;-86
2022/06/09 11:47:32;;;;;;;12.03;11.33;;;26.90;64.80;;;;;;4993399;28;20447;-86
2022/06/09 11:50:05;;;;;;;12.37;11.70;;;27.30;67.00;;;;;;4993284;28;20486;-84
2022/06/09 11:52:40;;;;;;;12.30;11.70;;;27.70;64.50;;;;;;4992714;28;20779;-84
2022/06/09 11:55:27;;;;;;;12.57;11.87;;;27.30;66.00;;;;;;4993352;28;20458;-84
2022/06/09 11:57:54;;;;;;;12.50;11.80;;;27.50;65.10;;;;;;4992783;28;20952;-84
2022/06/09 12:00:43;;;;;;;11.97;11.47;;;27.90;64.60;;;;;;4992762;28;20447;-83
2022/06/09 12:03:38;;;;;;;13.83;12.80;;;26.50;65.30;;;;;;4992561;28;20458;-85
2022/06/09 12:06:16;;;;;;;12.83;12.10;;;26.30;68.80;;;;;;4986958;28;20801;-87
2022/06/09 12:08:55;;;;;;;12.83;12.27;;;26.70;66.40;;;;;;4993374;28;21000;-86
2022/06/09 12:11:24;;;;;;;13.20;12.43;;;26.70;66.10;;;;;;4993285;28;20458;-85
2022/06/09 12:14:03;;;;;;;12.73;12.27;;;27.80;66.00;;;;;;4992351;28;20968;-86
2022/06/09 12:16:33;;;;;;;12.10;11.50;;;27.40;64.20;;;;;;4993061;28;20474;-85
2022/06/09 12:19:15;;;;;;;12.60;12.00;;;27.20;66.10;;;;;;4995178;28;20443;-85
2022/06/09 12:21:45;;;;;;;11.90;11.40;;;27.30;65.90;;;;;;4995179;28;20951;-88
2022/06/09 12:24:32;;;;;;;11.50;11.00;;;27.50;62.70;;;;;;4995466;28;20458;-85
2022/06/09 12:27:44;;;;;;;12.23;11.57;;;27.10;64.10;;;;;;4997154;28;20453;-84
2022/06/09 12:30:26;;;;;;;11.60;11.00;;;26.10;66.20;;;;;;5000809;28;20483;-85
2022/06/09 12:33:19;;;;;;;12.20;11.60;;;26.50;66.30;;;;;;4999642;28;20454;-85
2022/06/09 12:35:51;;;;;;;11.40;10.93;;;25.80;65.60;;;;;;4997063;28;20469;-88
2022/06/09 12:38:25;;;;;;;11.80;11.30;;;26.20;62.70;;;;;;4994353;28;20485;-86
2022/06/09 12:40:56;;;;;;;10.67;10.27;;;26.50;59.40;;;;;;4995281;28;20681;-85
2022/06/09 12:43:30;;;;;;;11.50;10.90;;;26.90;58.90;;;;;;4993087;28;20455;-87
2022/06/09 12:46:04;;;;;;;12.10;11.40;;;27.70;59.50;;;;;;4993170;28;20838;-86
2022/06/09 12:48:33;;;;;;;12.03;11.43;;;27.80;60.10;;;;;;4993192;28;20462;-86
2022/06/09 12:51:04;;;;;;;12.23;11.63;;;28.10;59.30;;;;;;4992140;28;20486;-84
2022/06/09 12:53:38;;;;;;;12.07;11.20;;;28.10;59.70;;;;;;4993628;28;20451;-83
2022/06/09 12:56:19;;;;;;;12.57;11.87;;;28.20;59.40;;;;;;4992557;28;20457;-84
2022/06/09 12:58:48;;;;;;;13.47;12.70;;;28.40;57.80;;;;;;4992649;28;20454;-85
2022/06/09 13:01:17;;;;;;;12.90;12.40;;;28.40;59.50;;;;;;4992837;28;20451;-86
2022/06/09 13:03:50;;;;;;;12.50;11.90;;;28.30;57.70;;;;;;4991640;28;20477;-85
2022/06/09 13:06:25;;;;;;;13.17;12.47;;;28.50;58.60;;;;;;4991520;28;20463;-86
2022/06/09 13:08:56;;;;;;;11.70;11.20;;;28.50;58.60;;;;;;4991746;28;20885;-85
2022/06/09 13:14:13;;;;;;;11.87;11.37;;;28.50;59.50;;;;;;4990958;28;20450;-84
2022/06/09 13:16:44;;;;;;;12.83;12.13;;;29.00;57.80;;;;;;4990850;28;20510;-85
2022/06/09 13:19:14;;;;;;;12.53;12.07;;;29.00;57.80;;;;;;4990936;28;20454;-83
2022/06/09 13:21:44;;;;;;;11.97;11.27;;;28.90;57.30;;;;;;4991215;28;20454;-84
2022/06/09 13:24:16;;;;;;;12.47;11.77;;;27.50;59.20;;;;;;4990737;28;20454;-84
2022/06/09 13:26:45;;;;;;;12.43;11.77;;;26.50;62.20;;;;;;4990748;28;20457;-82
2022/06/09 13:29:21;;;;;;;11.53;10.80;;;25.90;63.50;;;;;;4990632;28;20486;-85
2022/06/09 13:31:51;;;;;;;13.17;12.37;;;26.30;63.60;;;;;;4993172;28;20974;-85
2022/06/09 13:34:24;;;;;;;12.03;11.43;;;27.50;59.20;;;;;;4994379;28;20568;-85
2022/06/09 13:37:10;;;;;;;13.50;12.70;;;28.00;58.20;;;;;;4994574;28;20510;-85
2022/06/09 13:39:45;;;;;;;12.73;12.23;;;28.80;57.70;;;;;;4994608;28;20454;-83
2022/06/09 13:42:22;;;;;;;12.30;11.50;;;28.60;56.60;;;;;;4994428;28;20811;-83
2022/06/09 13:45:13;;;;;;;13.40;12.77;;;27.70;58.80;;;;;;4994055;28;20889;-83
2022/06/09 13:47:44;;;;;;;13.23;12.60;;;26.80;61.20;;;;;;4994893;28;20833;-82
2022/06/09 13:50:21;;;;;;;12.73;12.00;;;26.20;62.90;;;;;;4994268;28;20836;-81
2022/06/09 13:52:50;;;;;;;12.63;11.93;;;25.50;63.60;;;;;;4993975;28;20479;-81
2022/06/09 13:55:20;;;;;;;12.40;11.80;;;24.80;65.90;;;;;;4993716;28;20455;-81
2022/06/09 13:57:50;;;;;;;12.70;12.00;;;25.40;64.80;;;;;;4993604;28;20457;-82
2022/06/09 14:00:21;;;;;;;12.77;12.13;;;26.50;63.20;;;;;;4993606;28;20446;-82
2022/06/09 14:02:58;;;;;;;13.17;12.27;;;27.60;59.90;;;;;;4993497;28;20457;-82
2022/06/09 14:05:25;;;;;;;12.33;11.83;;;28.20;59.30;;;;;;4993938;28;20450;-83
2022/06/09 14:07:51;;;;;;;12.80;12.10;;;28.40;57.50;;;;;;4993943;28;20450;-83
2022/06/09 14:10:22;;;;;;;12.90;12.07;;;28.10;57.70;;;;;;4993706;28;20493;-84
2022/06/09 14:12:50;;;;;;;12.73;11.93;;;28.00;58.10;;;;;;4993989;28;20539;-83
2022/06/09 14:15:18;;;;;;;12.37;11.87;;;27.50;60.00;;;;;;4993567;28;20493;-81
2022/06/09 14:17:48;;;;;;;12.80;12.20;;;26.20;61.10;;;;;;4993353;28;20457;-81
2022/06/09 14:20:17;;;;;;;12.10;11.60;;;26.30;60.20;;;;;;4994537;28;20454;-83
2022/06/09 14:22:43;;;;;;;11.13;10.63;;;26.90;58.90;;;;;;4994320;28;20447;-83
2022/06/09 14:25:10;;;;;;;11.90;11.30;;;27.30;55.20;;;;;;4994422;28;20482;-82
2022/06/09 14:27:37;;;;;;;12.40;11.90;;;27.20;54.50;;;;;;4994773;28;20458;-83
2022/06/09 14:30:07;;;;;;;12.73;12.10;;;26.30;55.30;;;;;;4994110;28;20873;-83
2022/06/09 14:32:35;;;;;;;12.20;11.60;;;25.70;57.90;;;;;;4993689;28;20466;-83
2022/06/09 14:35:02;;;;;;;12.10;11.27;;;25.30;60.10;;;;;;4993798;28;20459;-82
2022/06/09 14:37:29;;;;;;;13.03;12.33;;;25.80;61.60;;;;;;4993779;28;20462;-83
2022/06/09 14:39:56;;;;;;;13.43;12.53;;;26.00;63.20;;;;;;4993748;28;20455;-82
2022/06/09 14:42:22;;;;;;;12.20;11.60;;;26.30;64.50;;;;;;4992597;28;20458;-82
2022/06/09 14:44:49;;;;;;;12.00;11.50;;;26.20;65.30;;;;;;4995271;28;20521;-82
2022/06/09 14:47:21;;;;;;;12.77;12.00;;;25.80;65.90;;;;;;4994140;28;20447;-82
2022/06/09 14:49:47;;;;;;;13.70;12.83;;;25.40;66.70;;;;;;4993509;28;20482;-82
2022/06/09 14:52:16;;;;;;;12.77;12.13;;;24.90;68.40;;;;;;4992947;28;20481;-79
2022/06/09 14:54:43;;;;;;;13.90;12.90;;;24.30;70.20;;;;;;4992767;28;20548;-79
2022/06/09 14:57:12;;;;;;;12.90;12.23;;;24.00;70.70;;;;;;4992933;28;20455;-79
2022/06/09 14:59:39;;;;;;;12.53;11.83;;;23.70;71.00;;;;;;4991617;28;20454;-77
2022/06/09 15:02:07;;;;;;;12.20;11.70;;;23.30;69.50;;;;;;4993000;28;20959;-78
2022/06/09 15:04:35;;;;;;;12.00;11.37;;;23.30;69.10;;;;;;4993115;28;20814;-78
2022/06/09 15:07:01;;;;;;;12.20;11.70;;;23.10;68.40;;;;;;4993072;28;21247;-77
2022/06/09 15:09:28;;;;;;;14.70;13.90;;;23.30;69.90;;;;;;4992530;28;20450;-79
2022/06/09 15:11:55;;;;;;;12.77;12.07;;;23.60;71.40;;;;;;4993001;28;20492;-79
2022/06/09 15:14:22;;;;;;;12.43;11.83;;;24.10;70.50;;;;;;4992823;28;20471;-78
2022/06/09 15:16:48;;;;;;;12.30;11.80;;;24.20;70.10;;;;;;4992493;28;20492;-79
2022/06/09 15:19:15;;;;;;;12.17;11.33;;;24.20;70.20;;;;;;4992681;28;20476;-81
2022/06/09 15:21:43;;;;;;;12.20;11.60;;;24.20;70.40;;;;;;4992694;28;20458;-77
2022/06/09 15:24:10;;;;;;;12.60;11.40;;;24.20;71.00;;;;;;4992928;28;20446;-79
2022/06/09 15:26:37;;;;;;;13.73;12.67;;;24.00;71.10;;;;;;4992314;28;20453;-79
2022/06/09 15:29:04;;;;;;;13.43;12.47;;;23.50;71.40;;;;;;4992418;28;20914;-78